Domov               UVHVVR             MKGP            O straneh              
ZDRAVSTVENO VARSTVO RASTLIN
  MREŽA AGROMET. POSTAJ
 ► PROGNOSTIČNA OBVESTILA
AGROMETEOROLOŠKI PODATKI -
ARSO
OBVLADOVANJE TVEGANJ ZARADI
NEUGODNIH VREMENSKIH RAZMER
  ► NARAVNE NESREČE
  ► SUŠA/MOČA
  ► NAMAKANJE
  ► ŽLED (gozdarstvo)
KARTOGRAFSKI PRIKAZI
SPLETNE POVEZAVE
PROJEKTI IN PUBLIKACIJE

AGROMETEOROLOŠKA MREŽA: VREMENSKE POSTAJE IN FENOLOŠKA OPAZOVANJA

Pregled podatkov za lokacijo Potoče, meteorološka postaja 861648

Pregled senzorjev na lokaciji

ID Ime Zadnja
vrednost
Datum
zadnje
spremembe
Tip
senzorja
4070 Temperatura 2 m ( °C) 16,18 °C 18.10.2017 18:00 50YA
4071 Relativna vlaga 2 m (% RH) 82,88 % RH 18.10.2017 17:59 50YA
4072 Omočenost lista (U) 0 U 18.10.2017 17:59 A730WET
4073 Padavine 0.2 mm (mm) 0 mm 18.10.2017 17:59 Rain-O-Matic

Pregled podatkov zadnjih 24 ur

Zap.
št.
Datum in čas Potoče
Omočenost
lista
Padavine
0.2
mm
Relativna
vlaga
2
m
Temperatura
2
m
0 18.10.2017 17:00 0 0 82,88 16,18
1 18.10.2017 16:30 0 0 76,05 18,22
2 18.10.2017 16:00 0 0 70,84 19,71
3 18.10.2017 15:30 0 0 64,83 20,8
4 18.10.2017 15:00 0 0 59,81 21,27
5 18.10.2017 14:30 0 0 59,01 21,35
6 18.10.2017 14:00 0 0 57,91 21,25
7 18.10.2017 13:30 0 0 58,9 21,32
8 18.10.2017 13:00 0 0 60,55 20,83
9 18.10.2017 12:30 0 0 61,59 20,82
10 18.10.2017 12:00 0 0,2 64,2 20,09
11 18.10.2017 11:30 0 0 68,88 19,24
12 18.10.2017 11:00 2 0 73,12 18,25
13 18.10.2017 10:30 10 0 76,82 17,13
14 18.10.2017 10:00 10 0 80,73 16,2
15 18.10.2017 09:30 10 0 95,06 14,5
16 18.10.2017 09:00 10 0 99,89 11,07
17 18.10.2017 08:30 10 0 99,99 8,99
18 18.10.2017 08:00 10 0 99,98 7,44
19 18.10.2017 07:30 10 0 99,97 6,63
20 18.10.2017 07:00 10 0 99,77 5,76
21 18.10.2017 06:30 10 0 99,61 5,75
22 18.10.2017 06:00 10 0 99,79 6,41
23 18.10.2017 05:30 10 0 99,8 6,8
24 18.10.2017 05:00 10 0 99,64 6,62
25 18.10.2017 04:30 10 0 99,45 6,65
26 18.10.2017 04:00 10 0 99,42 7,07
27 18.10.2017 03:30 10 0 99,41 7,5
28 18.10.2017 03:00 10 0 99,31 7,8
29 18.10.2017 02:30 10 0 99,19 8,18
30 18.10.2017 02:00 10 0 99,18 8,56
31 18.10.2017 01:30 10 0 99,13 9
32 18.10.2017 01:00 10 0 99,16 9,32
33 18.10.2017 00:30 10 0 99,11 9,56
34 18.10.2017 00:00 10 0 98,99 9,49
35 17.10.2017 23:30 10 0 98,76 9,24
36 17.10.2017 23:00 10 0 98,62 9,59
37 17.10.2017 22:30 10 0 98,51 9,81
38 17.10.2017 22:00 10 0 98,31 9,7
39 17.10.2017 21:30 10 0 98,11 9,89
40 17.10.2017 21:00 10 0 97,77 9,98
41 17.10.2017 20:30 10 0 97,85 10,71
42 17.10.2017 20:00 10 0 97,41 11,12
43 17.10.2017 19:30 10 0 96,98 11,72
44 17.10.2017 19:00 10 0 96,05 11,96
© 2011 Ministrstvo za kmetijstvo, gozdarstvo in prehrano. Vse pravice pridržane.